Time;durP1;ratioP1;P1;durP2;ratioP2;P2;SDS_P1;SDS_P2;PMS_P1;PMS_P2;Temp;Humidity;BMP_temperature;BMP_pressure;BME280_temperature;BME280_humidity;BME280_pressure;Samples;Min_cycle;Max_cycle;Signal;HPM_P1;HPM_P2
2023/05/19 00:07:42;;;;;;;0.90;0.90;;;;;;;22.01;56.47;100909.63;39956746;29;20065;-77
2023/05/19 00:27:43;;;;;;;0.70;0.70;;;;;;;21.97;56.33;100919.56;39958457;29;20514;-77
2023/05/19 00:47:43;;;;;;;0.98;0.82;;;;;;;21.95;56.43;100897.72;39950053;29;20045;-77
2023/05/19 01:07:45;;;;;;;0.90;0.90;;;;;;;21.96;56.38;100891.50;39976382;29;20402;-77
2023/05/19 01:28:09;;;;;;;1.88;0.90;;;;;;;21.92;56.30;100900.56;39963500;29;20146;-78
2023/05/19 01:48:10;;;;;;;1.33;0.90;;;;;;;21.90;56.36;100886.69;39973107;29;20054;-78
2023/05/19 02:08:42;;;;;;;1.10;1.00;;;;;;;21.89;56.43;100887.63;39981867;29;20042;-77
2023/05/19 02:28:44;;;;;;;0.95;0.85;;;;;;;21.88;56.33;100893.84;39942246;29;20061;-77
2023/05/19 02:48:44;;;;;;;0.90;0.90;;;;;;;21.86;56.09;100893.09;39973909;29;20459;-78
2023/05/19 03:08:44;;;;;;;1.38;0.90;;;;;;;21.84;56.36;100895.88;39958218;29;20050;-78
2023/05/19 03:28:45;;;;;;;1.02;0.70;;;;;;;21.81;56.52;100903.97;39938034;29;20050;-77
2023/05/19 03:48:45;;;;;;;1.77;0.95;;;;;;;21.82;56.45;100899.56;39965503;29;20137;-77
2023/05/19 04:08:46;;;;;;;2.53;1.00;;;;;;;21.83;56.07;100909.16;39916653;29;20493;-77
2023/05/19 04:28:47;;;;;;;2.42;1.00;;;;;;;21.82;56.19;100923.28;39903287;29;20517;-77
2023/05/19 04:48:48;;;;;;;10.27;2.70;;;;;;;21.90;56.87;100942.88;39922258;29;20054;-82
2023/05/19 05:08:50;;;;;;;10.25;3.65;;;;;;;21.94;54.64;100945.31;39897450;29;20052;-80
2023/05/19 05:28:50;;;;;;;8.65;4.03;;;;;;;21.83;54.13;100964.53;39926523;29;20042;-80
2023/05/19 05:48:51;;;;;;;4.45;3.22;;;;;;;21.91;54.35;100949.00;39913073;29;20053;-82
2023/05/19 06:08:51;;;;;;;5.32;2.90;;;;;;;21.99;55.45;100962.47;39945759;29;20061;-81
2023/05/19 06:28:52;;;;;;;3.85;3.30;;;;;;;22.01;55.20;100981.66;39936411;29;20208;-80
2023/05/19 06:48:52;;;;;;;4.47;2.95;;;;;;;22.04;55.53;100999.06;39955575;29;20054;-80
2023/05/19 07:08:53;;;;;;;3.85;2.85;;;;;;;22.07;55.53;100998.84;39914597;29;20082;-80
2023/05/19 07:28:54;;;;;;;3.63;2.50;;;;;;;22.12;55.13;100991.44;39912651;29;20961;-80
2023/05/19 07:48:55;;;;;;;5.50;2.67;;;;;;;22.15;55.41;100969.28;39946951;29;20121;-80
2023/05/19 08:08:55;;;;;;;3.60;2.50;;;;;;;22.20;55.57;100973.28;39992540;29;20106;-83
2023/05/19 08:28:56;;;;;;;3.00;2.70;;;;;;;22.28;55.67;100961.31;39989648;29;20046;-81
2023/05/19 08:49:03;;;;;;;3.42;2.90;;;;;;;22.34;55.62;100958.25;39977698;29;20144;-81
2023/05/19 09:09:04;;;;;;;3.42;3.10;;;;;;;22.41;55.69;100956.00;39987637;29;20046;-80
2023/05/19 09:29:13;;;;;;;3.87;3.03;;;;;;;22.39;55.76;100964.03;39962137;29;20189;-76
2023/05/19 09:49:18;;;;;;;7.53;3.58;;;;;;;22.42;55.26;100953.25;39962755;29;20563;-80
2023/05/19 10:09:22;;;;;;;4.50;3.22;;;;;;;22.45;55.78;100934.56;39957770;29;20069;-74
2023/05/19 10:29:27;;;;;;;999.15;913.63;;;;;;;22.62;54.80;100908.69;39963370;29;20051;-76
2023/05/19 10:49:27;;;;;;;958.38;873.17;;;;;;;22.90;51.10;100899.53;39948568;29;20058;-77
2023/05/19 11:09:32;;;;;;;692.50;629.25;;;;;;;23.01;52.83;100877.59;39961238;29;20045;-77
2023/05/19 11:29:33;;;;;;;183.82;165.80;;;;;;;23.27;53.19;100869.44;39958286;29;20050;-75
2023/05/19 11:49:34;;;;;;;75.97;69.82;;;;;;;23.41;52.43;100860.41;39985949;29;20065;-77
2023/05/19 12:09:35;;;;;;;10.07;8.75;;;;;;;23.49;51.66;100856.19;39978306;29;20156;-79
2023/05/19 12:29:40;;;;;;;8.07;2.75;;;;;;;23.46;51.63;100830.03;39975956;29;20050;-86
2023/05/19 12:49:55;;;;;;;6.55;2.80;;;;;;;23.60;51.51;100813.03;39950304;29;22008;-83
2023/05/19 13:09:56;;;;;;;6.63;2.88;;;;;;;23.69;51.60;100803.50;39972141;29;20056;-81
2023/05/19 13:29:56;;;;;;;6.15;2.80;;;;;;;23.87;52.38;100774.72;39956214;29;20104;-76
2023/05/19 13:49:57;;;;;;;2.53;2.33;;;;;;;24.11;51.02;100756.00;39928470;29;20050;-77
2023/05/19 14:09:57;;;;;;;2.70;2.30;;;;;;;24.15;49.86;100740.69;39947996;29;20058;-74
2023/05/19 14:29:58;;;;;;;6.53;2.88;;;;;;;24.28;49.10;100740.50;39950632;29;20060;-78
2023/05/19 14:49:58;;;;;;;5.35;2.35;;;;;;;24.32;49.06;100735.81;39935172;29;20045;-75
2023/05/19 15:09:58;;;;;;;2.78;2.25;;;;;;;24.40;48.22;100728.88;39920079;29;20042;-76
2023/05/19 15:29:59;;;;;;;5.50;2.90;;;;;;;24.41;48.35;100721.75;39893144;29;20207;-74
2023/05/19 15:49:59;;;;;;;9.45;3.20;;;;;;;24.27;48.81;100710.56;39926731;29;20055;-75
2023/05/19 16:10:00;;;;;;;6.82;3.42;;;;;;;24.17;49.38;100719.41;39953710;29;20132;-75
2023/05/19 16:30:01;;;;;;;6.10;3.78;;;;;;;24.16;50.10;100729.16;39964436;29;20087;-76
2023/05/19 16:50:02;;;;;;;6.55;3.67;;;;;;;24.08;51.09;100731.59;39957539;29;20530;-75
2023/05/19 17:10:03;;;;;;;6.63;3.70;;;;;;;24.01;51.05;100728.66;39976052;29;20059;-75
2023/05/19 17:30:03;;;;;;;6.05;3.60;;;;;;;23.96;51.55;100744.03;39986862;29;20952;-75
2023/05/19 17:50:04;;;;;;;7.28;4.00;;;;;;;23.82;51.85;100753.13;39955493;29;20065;-74
2023/05/19 18:10:06;;;;;;;3.55;3.20;;;;;;;23.66;51.90;100751.72;39967286;29;20068;-75
2023/05/19 18:30:06;;;;;;;3.45;3.15;;;;;;;23.55;52.05;100754.44;39970345;29;20051;-75
2023/05/19 18:50:08;;;;;;;3.63;2.90;;;;;;;23.40;52.37;100780.31;39960633;29;20099;-75
2023/05/19 19:10:09;;;;;;;3.42;3.13;;;;;;;23.29;52.37;100780.31;39957498;29;20038;-74
2023/05/19 19:30:10;;;;;;;5.25;2.90;;;;;;;23.30;52.49;100796.06;39961978;29;20033;-74
2023/05/19 19:50:10;;;;;;;7.88;3.42;;;;;;;23.28;53.15;100810.38;39965064;29;20054;-75
2023/05/19 20:10:11;;;;;;;6.22;3.40;;;;;;;23.27;53.52;100833.28;39965913;29;20049;-74
2023/05/19 20:30:11;;;;;;;4.80;2.95;;;;;;;23.27;53.91;100824.53;39973851;29;20421;-73
2023/05/19 20:50:12;;;;;;;5.50;3.13;;;;;;;23.21;53.85;100820.56;39961915;29;20525;-74
2023/05/19 21:10:13;;;;;;;6.95;3.78;;;;;;;23.13;54.11;100817.66;39958043;29;20378;-77
2023/05/19 21:30:13;;;;;;;6.32;3.10;;;;;;;23.07;54.09;100820.78;39986756;29;20142;-77
2023/05/19 21:50:16;;;;;;;3.70;3.20;;;;;;;22.96;54.52;100814.56;39975891;29;20076;-76
2023/05/19 22:10:16;;;;;;;5.28;3.17;;;;;;;22.91;54.33;100807.94;39953009;29;20406;-74
2023/05/19 22:30:18;;;;;;;4.50;3.42;;;;;;;22.91;54.74;100782.38;39967126;29;20074;-75
2023/05/19 22:50:18;;;;;;;5.50;2.92;;;;;;;22.91;54.42;100768.34;39960473;29;20114;-76
2023/05/19 23:10:19;;;;;;;3.60;2.83;;;;;;;22.85;54.54;100757.28;39975378;29;20063;-76
2023/05/19 23:30:19;;;;;;;3.83;2.63;;;;;;;22.85;54.49;100761.72;39957372;29;23165;-76
2023/05/19 23:50:20;;;;;;;3.95;2.85;;;;;;;22.79;54.83;100741.94;39967795;29;20046;-76
